Aérodrome :
LOGIN :

S'inscrire | Disclaimer

   EN    FR    IT 

 










Légende :    VFR   VFR Marginal   IFR   IFR Intensif   IFR Très Intensif
Visi : 
Plafond : 
>= 8 km
>= 3000ft
5 à 8 km
1000 à 3000 ft
1500m à 5 km
500 à 1000 ft
800 à 1500m
200 à 500 ft
< 800m
< 200 ft
Symboles :   Orages  Brouillard  Fortes neiges  Fortes précipitations  Vent > 20 kt
SIGMETs :   Divers  Orages  Givrage  Turbulence  Onde Orograph.  Cendres Volcan.







- Altitude de l'aérodrome : 14 ft
- Code IATA : BRE


EDDW - Bremen Neuenland

DERNIER METAR :
  • 252320Z 03008KT CAVOK M05/M08 Q1033 R88/290095

METARs EXPIRÉS :
  • 252250Z 03009KT 9999 SCT019 M05/M08 Q1032 R88/290095
  • 252220Z 04008KT 9999 FEW016 M05/M08 Q1032 R88/290095
  • 252150Z 03007KT 9999 FEW016 M06/M08 Q1033 R88/290095
  • 252120Z 04007KT 9999 FEW016 M05/M07 Q1033 R88/290095
  • 252050Z 04006KT 9999 FEW016 M06/M08 Q1033 R88/290095
  • 252020Z 05006KT 9999 SCT016 M05/M07 Q1033 R88/290095 NOSIG

TAF TAF EDDW
Valide du 25 à 18h jusqu'au 26 à 18h UTC


251700Z 2518/2618 04010KT 8000 BKN025
PROB30
TEMPO 2520/2607 4500 -SN BKN012
Pas de NOTAMs connus pour ce terrain.



MET'MAP, la Météo Aéronautique d'un coup d'oeil ! - Copyright ORBIFLY Décembre 2007 - Disclaimer

ORBIFLY MET'MAP TEAM :

Programmation & Développement : Alexandra Zaïnal
Conception & Développement : Baudouin d'Aumeries
Co-Programmation & Développement : Marc-Olivier Méhu
Soutien technique & logistique : Manuel Goepfert

Contact : metmap@orbifly.com




SOURCES & CREDITS :

   NOAA